CYKF

Waterloo Airport

Kitchener, Ontario, Canada
TAF AMD CYKF 221528Z 2215/2302 13008KT P6SM FEW015 OVC090 TEMPO 2215/2220 BKN015 OVC090 BECMG 2216/2218 12012KT FM230100 16010KT P6SM -SN OVC050 RMK FCST BASED ON AUTO OBS. NXT FCST BY 222000Z
Issued Valid From Valid To
Jan-22 @ 15:28 UTC
(an hour ago)
Jan-22 @ 15:00 UTC
(2 hours ago)
Jan-23 @ 02:00 UTC
(in 9 hours)
Expired Click to View Jan-22 @ 15:00 to Jan-22 @ 16:00
TAF AMD CYKF 221528Z 2215/2302 13008KT P6SM FEW015 OVC090
Wind Visibility Clouds
130° at 8 knots Greater than 6 miles
  • Few at 1,500' AGL
  • Overcast at 9,000' AGL
Temporary Jan-22 @ 15:00 to Jan-22 @ 20:00
TEMPO 2215/2220 BKN015 OVC090
Clouds
  • Broken at 1,500' AGL
  • Overcast at 9,000' AGL
Becoming Jan-22 @ 16:00 to Jan-23 @ 01:00
BECMG 2216/2218 12012KT
Wind Visibility Clouds
120° at 12 knots Greater than 6 miles
  • Few at 1,500' AGL
  • Overcast at 9,000' AGL
From Jan-23 @ 01:00 to Jan-23 @ 02:00
FM230100 16010KT P6SM -SN OVC050 RMK FCST BASED ON AUTO OBS. NXT FCST BY 222000Z
Wind Visibility Clouds Conditions
160° at 10 knots Greater than 6 miles
  • Overcast at 5,000' AGL
  • Light Snow
TAF AMD CYKF 221528Z 2215/2302 13008KT P6SM FEW015 OVC090 TEMPO 2215/2220 BKN015 OVC090 BECMG 2216/2218 12012KT FM230100 16010KT P6SM -SN OVC050 RMK FCST BASED ON AUTO OBS. NXT FCST BY 222000Z
Issued Jan-22 @ 15:28 UTC
(an hour ago)
Valid From Jan-22 @ 15:00 UTC
(2 hours ago)
Valid To Jan-23 @ 02:00 UTC
(in 9 hours)
Jan-22 @ 15:00 - Jan-22 @ 16:00
Wind Visibility
130° at 8 knots Greater than 6 miles
Clouds
  • Few at 1,500' AGL
  • Overcast at 9,000' AGL
Temporary Jan-22 @ 15:00 - Jan-22 @ 20:00
Clouds
  • Broken at 1,500' AGL
  • Overcast at 9,000' AGL
Becoming Jan-22 @ 16:00 - Jan-23 @ 01:00
Wind Visibility
120° at 12 knots Greater than 6 miles
Clouds
  • Few at 1,500' AGL
  • Overcast at 9,000' AGL
From Jan-23 @ 01:00 - Jan-23 @ 02:00
Wind Visibility
160° at 10 knots Greater than 6 miles
Clouds
  • Overcast at 5,000' AGL
Conditions
  • Light Snow